createdAt,value
2019-01-29T00:01:59.907Z,14.30
2019-01-29T00:04:28.489Z,19.48
2019-01-29T00:06:57.042Z,14.93
2019-01-29T00:09:25.647Z,15.15
2019-01-29T00:11:54.437Z,20.10
2019-01-29T00:14:23.236Z,21.25
2019-01-29T00:16:51.820Z,19.48
2019-01-29T00:19:20.400Z,15.50
2019-01-29T00:21:49.040Z,20.00
2019-01-29T00:24:17.599Z,18.67
2019-01-29T00:26:46.163Z,22.32
2019-01-29T00:29:14.728Z,23.92
2019-01-29T00:31:43.548Z,20.90
2019-01-29T00:34:12.126Z,22.90
2019-01-29T00:36:40.706Z,18.60
2019-01-29T00:39:09.554Z,20.15
2019-01-29T00:41:38.228Z,17.23
2019-01-29T00:44:06.800Z,18.37
2019-01-29T00:46:35.639Z,15.20
2019-01-29T00:49:04.346Z,16.02
2019-01-29T00:51:32.935Z,15.93
2019-01-29T00:54:01.492Z,13.08
2019-01-29T00:56:30.064Z,15.72
2019-01-29T00:58:58.625Z,23.02
2019-01-29T01:01:27.201Z,16.12
2019-01-29T01:03:55.783Z,13.50
2019-01-29T01:06:24.423Z,11.50
2019-01-29T01:08:53.268Z,20.82
2019-01-29T01:11:21.838Z,16.23
2019-01-29T01:13:50.410Z,13.30
2019-01-29T01:16:19.083Z,21.20
2019-01-29T01:18:47.901Z,14.43
2019-01-29T01:21:16.695Z,14.95
2019-01-29T01:23:45.283Z,17.90
2019-01-29T01:26:13.863Z,14.33
2019-01-29T01:28:42.459Z,22.25
2019-01-29T01:31:11.013Z,10.08
2019-01-29T01:33:39.812Z,11.45
2019-01-29T01:36:08.360Z,19.75
2019-01-29T01:38:37.182Z,12.58
2019-01-29T01:41:05.987Z,17.17
2019-01-29T01:43:34.564Z,15.20
2019-01-29T01:46:03.215Z,13.50
2019-01-29T01:48:31.775Z,15.93
2019-01-29T01:51:00.409Z,8.20
2019-01-29T01:53:28.990Z,7.47
2019-01-29T01:55:57.817Z,9.08
2019-01-29T01:58:26.371Z,8.50
2019-01-29T02:00:55.035Z,11.10
2019-01-29T02:03:23.606Z,10.38
2019-01-29T02:05:52.160Z,9.85
2019-01-29T02:08:20.727Z,10.35
2019-01-29T02:10:49.751Z,12.85
2019-01-29T02:13:18.577Z,15.23
2019-01-29T02:15:47.145Z,11.83
2019-01-29T02:18:15.812Z,12.28
2019-01-29T02:20:44.604Z,15.60
2019-01-29T02:23:13.201Z,12.55
2019-01-29T02:25:42.005Z,15.43
2019-01-29T02:28:10.587Z,12.33
2019-01-29T02:30:39.160Z,9.53
2019-01-29T02:33:07.716Z,17.70
2019-01-29T02:35:36.294Z,14.13
2019-01-29T02:38:04.934Z,15.58
2019-01-29T02:40:33.486Z,14.35
2019-01-29T02:43:02.036Z,23.02
2019-01-29T02:45:30.916Z,20.50
2019-01-29T02:47:59.476Z,18.27
2019-01-29T02:50:28.036Z,19.27
2019-01-29T02:52:56.828Z,15.55
2019-01-29T02:55:25.391Z,16.27
2019-01-29T02:57:53.963Z,21.87
2019-01-29T03:00:27.005Z,23.47
2019-01-29T03:02:55.666Z,15.93
2019-01-29T03:05:24.310Z,16.60
2019-01-29T03:07:53.264Z,14.58
2019-01-29T03:10:23.739Z,15.40
2019-01-29T03:12:52.660Z,27.62
2019-01-29T03:15:24.944Z,22.35
2019-01-29T03:17:53.606Z,23.20
2019-01-29T03:20:22.276Z,19.48
2019-01-29T03:22:50.912Z,19.50
2019-01-29T03:25:19.843Z,26.05
2019-01-29T03:27:48.646Z,18.32
2019-01-29T03:30:18.024Z,16.65
2019-01-29T03:32:46.691Z,23.60
2019-01-29T03:35:15.509Z,19.02
2019-01-29T03:37:44.415Z,18.98
2019-01-29T03:40:16.279Z,20.25
2019-01-29T03:42:44.926Z,16.85
2019-01-29T03:45:15.361Z,22.52
2019-01-29T03:47:43.948Z,21.75
2019-01-29T03:50:14.077Z,25.52
2019-01-29T03:52:42.792Z,25.48
2019-01-29T03:55:11.450Z,17.67
2019-01-29T03:57:40.007Z,26.48
2019-01-29T04:02:46.591Z,21.77
2019-01-29T04:05:15.170Z,28.73
2019-01-29T04:07:43.813Z,19.10
2019-01-29T04:10:15.563Z,20.80
2019-01-29T04:12:44.161Z,22.07
2019-01-29T04:15:14.598Z,26.60
2019-01-29T04:17:43.413Z,26.30
2019-01-29T04:20:14.546Z,22.35
2019-01-29T04:22:43.203Z,18.30
2019-01-29T04:25:11.845Z,21.37
2019-01-29T04:27:40.404Z,24.25
2019-01-29T04:30:12.537Z,17.07
2019-01-29T04:32:41.093Z,26.57
2019-01-29T04:35:09.748Z,20.00
2019-01-29T04:37:38.305Z,14.75
2019-01-29T04:40:08.502Z,19.02
2019-01-29T04:42:37.086Z,24.72
2019-01-29T04:45:07.498Z,28.12
2019-01-29T04:47:36.093Z,22.35
2019-01-29T04:50:05.119Z,24.67
2019-01-29T04:52:33.702Z,15.18
2019-01-29T04:55:02.270Z,16.48
2019-01-29T04:57:31.100Z,19.10
2019-01-29T04:59:59.660Z,16.42
2019-01-29T05:02:28.563Z,20.80
2019-01-29T05:04:57.127Z,16.15
2019-01-29T05:07:25.689Z,21.23
2019-01-29T05:09:54.294Z,17.25
2019-01-29T05:12:22.909Z,26.87
2019-01-29T05:14:51.711Z,25.45
2019-01-29T05:17:20.296Z,19.95
2019-01-29T05:19:49.364Z,30.82
2019-01-29T05:22:18.396Z,30.55
2019-01-29T05:24:46.990Z,29.72
2019-01-29T05:27:15.593Z,23.85
2019-01-29T05:29:44.168Z,25.70
2019-01-29T05:32:12.785Z,17.67
2019-01-29T05:34:41.380Z,24.45
2019-01-29T05:37:09.949Z,19.15
2019-01-29T05:39:39.137Z,16.93
2019-01-29T05:42:08.378Z,15.23
2019-01-29T05:44:36.944Z,27.00
2019-01-29T05:47:05.599Z,18.20
2019-01-29T05:49:34.174Z,21.40
2019-01-29T05:52:02.753Z,34.13
2019-01-29T05:54:31.399Z,30.55
2019-01-29T05:57:00.000Z,23.98
2019-01-29T05:59:28.597Z,20.88
2019-01-29T06:01:57.245Z,18.77
2019-01-29T06:04:25.969Z,28.27
2019-01-29T06:06:54.755Z,25.80
2019-01-29T06:09:23.434Z,17.12
2019-01-29T06:11:52.082Z,20.30
2019-01-29T06:14:20.648Z,30.85
2019-01-29T06:16:49.279Z,24.72
2019-01-29T06:19:17.829Z,24.67
2019-01-29T06:21:46.468Z,17.02
2019-01-29T06:24:15.055Z,14.15
2019-01-29T06:26:46.986Z,26.50
2019-01-29T06:29:17.840Z,18.80
2019-01-29T06:31:46.658Z,25.37
2019-01-29T06:34:15.258Z,25.95
2019-01-29T06:36:43.879Z,23.35
2019-01-29T06:39:12.445Z,17.60
2019-01-29T06:41:41.310Z,21.07
2019-01-29T06:44:09.894Z,18.67
2019-01-29T06:46:38.499Z,19.82
2019-01-29T06:49:07.303Z,23.85
2019-01-29T06:51:35.870Z,29.87
2019-01-29T06:54:04.531Z,18.85
2019-01-29T06:56:33.105Z,19.77
2019-01-29T06:59:01.662Z,19.70
2019-01-29T07:01:30.232Z,23.15
2019-01-29T07:03:58.809Z,17.00
2019-01-29T07:06:27.457Z,19.42
2019-01-29T07:08:56.267Z,20.43
2019-01-29T07:11:24.841Z,16.02
2019-01-29T07:13:53.669Z,17.98
2019-01-29T07:16:29.770Z,15.20
2019-01-29T07:19:05.369Z,24.10
2019-01-29T07:21:33.961Z,19.15
2019-01-29T07:24:02.828Z,18.70
2019-01-29T07:26:31.403Z,17.77
2019-01-29T07:29:00.058Z,21.62
2019-01-29T07:31:28.882Z,26.60
2019-01-29T07:33:57.452Z,24.07
2019-01-29T07:36:26.036Z,29.92
2019-01-29T07:38:54.622Z,26.87
2019-01-29T07:41:23.189Z,17.57
2019-01-29T07:43:51.764Z,21.97
2019-01-29T07:46:20.344Z,15.98
2019-01-29T07:48:48.902Z,13.38
2019-01-29T07:51:17.557Z,20.88
2019-01-29T07:53:46.196Z,21.45
2019-01-29T07:56:14.754Z,15.85
2019-01-29T07:58:43.337Z,18.55
2019-01-29T08:01:11.901Z,16.62
2019-01-29T08:03:40.486Z,19.77
2019-01-29T08:06:09.412Z,20.95
2019-01-29T08:08:38.225Z,13.93
2019-01-29T08:11:06.994Z,18.12
2019-01-29T08:13:35.707Z,23.67
2019-01-29T08:16:04.553Z,12.40
2019-01-29T08:18:33.146Z,22.02
2019-01-29T08:21:01.725Z,13.98
2019-01-29T08:23:30.308Z,13.58
2019-01-29T08:25:58.974Z,17.42
2019-01-29T08:28:27.554Z,13.28
2019-01-29T08:30:56.366Z,12.20
2019-01-29T08:33:24.949Z,16.90
2019-01-29T08:35:53.696Z,10.65
2019-01-29T08:38:23.841Z,18.37
2019-01-29T08:40:52.651Z,11.93
2019-01-29T08:43:21.328Z,17.17
2019-01-29T08:45:49.985Z,14.00
2019-01-29T08:48:18.953Z,17.57
2019-01-29T08:50:47.530Z,11.45
2019-01-29T08:53:16.080Z,12.18
2019-01-29T08:55:45.076Z,12.78
2019-01-29T08:58:13.587Z,16.93
2019-01-29T09:00:42.163Z,13.08
2019-01-29T09:03:10.753Z,12.30
2019-01-29T09:05:39.335Z,12.03
2019-01-29T09:08:08.063Z,12.43
2019-01-29T09:10:37.055Z,9.60
2019-01-29T09:13:05.696Z,13.40
2019-01-29T09:15:34.277Z,15.98
2019-01-29T09:18:02.925Z,18.37
2019-01-29T09:20:31.840Z,15.18
2019-01-29T09:23:00.438Z,15.58
2019-01-29T09:25:29.029Z,18.75
2019-01-29T09:27:57.609Z,13.18
2019-01-29T09:30:26.440Z,15.63
2019-01-29T09:32:55.017Z,9.45
2019-01-29T09:35:23.601Z,16.45
2019-01-29T09:37:52.414Z,13.78
2019-01-29T09:40:21.066Z,11.55
2019-01-29T09:42:49.755Z,15.23
2019-01-29T09:45:18.747Z,17.75
2019-01-29T09:47:47.504Z,10.95
2019-01-29T09:50:18.255Z,12.53
2019-01-29T09:52:46.907Z,13.05
2019-01-29T09:55:16.731Z,14.35
2019-01-29T09:57:45.333Z,18.62
2019-01-29T10:00:25.727Z,12.85
2019-01-29T10:02:54.423Z,11.15
2019-01-29T10:05:23.337Z,14.07
2019-01-29T10:07:51.965Z,11.23
2019-01-29T10:10:20.630Z,13.53
2019-01-29T10:12:49.195Z,15.00
2019-01-29T10:15:20.628Z,10.80
2019-01-29T10:17:49.625Z,8.15
2019-01-29T10:20:18.367Z,15.45
2019-01-29T10:22:47.265Z,8.45
2019-01-29T10:25:16.194Z,10.08
2019-01-29T10:27:44.845Z,10.23
2019-01-29T10:30:13.759Z,6.55
2019-01-29T10:32:42.638Z,9.90
2019-01-29T10:35:13.748Z,9.00
2019-01-29T10:37:42.378Z,7.60
2019-01-29T10:40:13.262Z,13.07
2019-01-29T10:42:41.852Z,9.73
2019-01-29T10:45:11.503Z,9.60
2019-01-29T10:47:40.091Z,11.90
2019-01-29T10:50:10.453Z,9.13
2019-01-29T10:52:39.084Z,9.27
2019-01-29T10:55:08.510Z,8.83
2019-01-29T10:57:37.460Z,16.83
2019-01-29T11:00:08.732Z,6.80
2019-01-29T11:02:37.328Z,11.38
2019-01-29T11:05:06.742Z,7.60
2019-01-29T11:07:35.421Z,10.63
2019-01-29T11:10:05.537Z,10.63
2019-01-29T11:12:34.256Z,8.97
2019-01-29T11:15:02.814Z,9.37
2019-01-29T11:17:31.623Z,12.50
2019-01-29T11:20:00.199Z,8.37
2019-01-29T11:22:28.869Z,12.82
2019-01-29T11:24:57.428Z,5.70
2019-01-29T11:27:26.021Z,11.05
2019-01-29T11:29:54.841Z,10.75
2019-01-29T11:32:23.784Z,9.20
2019-01-29T11:34:52.365Z,12.43
2019-01-29T11:37:20.951Z,8.68
2019-01-29T11:39:49.519Z,8.78
2019-01-29T11:42:18.359Z,11.40
2019-01-29T11:44:47.173Z,10.75
2019-01-29T11:47:15.766Z,11.10
2019-01-29T11:49:44.351Z,12.43
2019-01-29T11:52:12.959Z,10.95
2019-01-29T11:54:41.768Z,14.63
2019-01-29T11:57:10.371Z,7.80
2019-01-29T11:59:38.928Z,11.90
2019-01-29T12:02:07.771Z,11.90
2019-01-29T12:04:36.363Z,9.05
2019-01-29T12:07:05.130Z,7.60
2019-01-29T12:09:33.725Z,15.10
2019-01-29T12:12:02.294Z,6.90
2019-01-29T12:14:30.872Z,11.75
2019-01-29T12:16:59.658Z,8.63
2019-01-29T12:19:28.243Z,4.78
2019-01-29T12:21:56.794Z,6.70
2019-01-29T12:24:25.616Z,5.87
2019-01-29T12:26:54.436Z,5.83
2019-01-29T12:29:23.013Z,5.17
2019-01-29T12:31:51.668Z,6.50
2019-01-29T12:34:20.245Z,8.37
2019-01-29T12:36:48.814Z,8.00
2019-01-29T12:39:17.382Z,7.63
2019-01-29T12:41:46.017Z,6.90
2019-01-29T12:44:14.607Z,5.17
2019-01-29T12:46:43.250Z,4.73
2019-01-29T12:49:11.822Z,5.43
2019-01-29T12:52:07.046Z,6.80
2019-01-29T12:54:35.706Z,7.30
2019-01-29T12:57:04.519Z,6.50
2019-01-29T12:59:33.090Z,7.80
2019-01-29T13:02:01.896Z,6.67
2019-01-29T13:04:30.683Z,8.57
2019-01-29T13:06:59.269Z,7.35
2019-01-29T13:09:28.089Z,8.85
2019-01-29T13:11:56.669Z,8.05
2019-01-29T13:14:25.260Z,7.62
2019-01-29T13:16:54.062Z,5.95
2019-01-29T13:19:22.632Z,8.70
2019-01-29T13:21:51.223Z,12.25
2019-01-29T13:24:19.807Z,5.97
2019-01-29T13:26:48.422Z,10.88
2019-01-29T13:29:16.998Z,8.30
2019-01-29T13:31:45.582Z,8.75
2019-01-29T13:34:14.151Z,8.60
2019-01-29T13:36:42.830Z,11.40
2019-01-29T13:39:11.636Z,8.70
2019-01-29T13:41:40.215Z,5.90
2019-01-29T13:44:08.785Z,4.08
2019-01-29T13:46:37.615Z,7.20
2019-01-29T13:49:06.266Z,4.50
2019-01-29T13:51:34.837Z,4.05
2019-01-29T13:54:03.657Z,13.35
2019-01-29T13:56:38.832Z,5.42
2019-01-29T13:59:02.542Z,4.28
2019-01-29T14:01:31.113Z,7.45
2019-01-29T14:04:06.093Z,3.90
2019-01-29T14:06:29.983Z,6.45
2019-01-29T14:08:58.604Z,6.12
2019-01-29T14:11:27.273Z,9.95
2019-01-29T14:13:55.857Z,5.85
2019-01-29T14:16:24.429Z,4.67
2019-01-29T14:18:53.005Z,5.55
2019-01-29T14:21:21.569Z,5.33
2019-01-29T14:23:50.146Z,9.50
2019-01-29T14:26:18.705Z,10.23
2019-01-29T14:28:47.294Z,5.72
2019-01-29T14:31:15.928Z,7.92
2019-01-29T14:33:47.213Z,5.53
2019-01-29T14:36:16.925Z,6.45
2019-01-29T14:39:08.588Z,4.03
2019-01-29T14:41:37.394Z,4.00
2019-01-29T14:44:08.931Z,4.90
2019-01-29T14:46:37.586Z,7.55
2019-01-29T14:49:06.262Z,6.00
2019-01-29T14:51:35.110Z,7.30
2019-01-29T14:54:04.213Z,19.10
2019-01-29T14:56:33.122Z,8.20
2019-01-29T14:59:01.702Z,7.90
2019-01-29T15:01:30.348Z,9.48
2019-01-29T15:03:59.270Z,4.55
2019-01-29T15:06:32.685Z,7.55
2019-01-29T15:08:58.154Z,7.80
2019-01-29T15:11:26.728Z,3.10
2019-01-29T15:13:55.567Z,4.30
2019-01-29T15:16:39.911Z,4.25
2019-01-29T15:19:14.634Z,3.45
2019-01-29T15:21:43.281Z,4.33
2019-01-29T15:24:11.865Z,8.53
2019-01-29T15:26:40.425Z,5.40
2019-01-29T15:29:09.547Z,3.92
2019-01-29T15:31:38.132Z,6.03
2019-01-29T15:34:06.765Z,5.40
2019-01-29T15:36:36.194Z,3.15
2019-01-29T15:39:08.327Z,4.70
2019-01-29T15:41:37.014Z,7.75
2019-01-29T15:44:05.752Z,5.28
2019-01-29T15:46:34.411Z,4.05
2019-01-29T15:49:02.985Z,6.42
2019-01-29T15:51:31.565Z,5.42
2019-01-29T15:54:00.127Z,3.98
2019-01-29T15:56:28.927Z,5.67
2019-01-29T15:58:57.767Z,5.92
2019-01-29T16:01:26.688Z,4.72
2019-01-29T16:03:55.316Z,6.87
2019-01-29T16:06:24.021Z,7.90
2019-01-29T16:08:53.209Z,7.12
2019-01-29T16:11:21.796Z,5.33
2019-01-29T16:13:50.382Z,5.25
2019-01-29T16:16:19.054Z,8.38
2019-01-29T16:18:47.634Z,5.75
2019-01-29T16:21:16.319Z,3.25
2019-01-29T16:23:45.556Z,6.42
2019-01-29T16:26:14.248Z,7.50
2019-01-29T16:28:43.049Z,4.30
2019-01-29T16:31:11.639Z,7.35
2019-01-29T16:33:40.215Z,3.10
2019-01-29T16:36:08.982Z,6.53
2019-01-29T16:38:37.558Z,4.42
2019-01-29T16:41:06.447Z,4.42
2019-01-29T16:43:35.041Z,11.05
2019-01-29T16:46:03.614Z,9.70
2019-01-29T16:48:32.382Z,8.53
2019-01-29T16:51:00.990Z,10.38
2019-01-29T16:53:29.744Z,7.40
2019-01-29T16:55:58.326Z,8.25
2019-01-29T16:58:26.894Z,10.88
2019-01-29T17:00:55.529Z,8.20
2019-01-29T17:03:24.173Z,6.55
2019-01-29T17:05:53.049Z,9.98
2019-01-29T17:08:21.656Z,6.87
2019-01-29T17:10:50.262Z,9.28
2019-01-29T17:13:18.942Z,12.63
2019-01-29T17:15:47.540Z,8.03
2019-01-29T17:18:16.131Z,7.15
2019-01-29T17:20:44.879Z,9.58
2019-01-29T17:23:13.649Z,7.65
2019-01-29T17:25:42.603Z,8.15
2019-01-29T17:28:11.480Z,9.20
2019-01-29T17:30:41.901Z,6.05
2019-01-29T17:33:11.325Z,6.05
2019-01-29T17:35:40.649Z,7.22
2019-01-29T17:38:09.283Z,11.28
2019-01-29T17:40:38.344Z,18.25
2019-01-29T17:43:07.877Z,12.85
2019-01-29T17:45:39.221Z,10.75
2019-01-29T17:48:08.412Z,7.25
2019-01-29T17:50:38.432Z,9.78
2019-01-29T17:53:07.160Z,9.63
2019-01-29T17:55:37.500Z,12.80
2019-01-29T17:58:06.812Z,8.88
2019-01-29T18:00:36.114Z,13.00
2019-01-29T18:03:05.406Z,11.80
2019-01-29T18:05:34.980Z,8.20
2019-01-29T18:08:03.714Z,8.80
2019-01-29T18:10:32.636Z,10.63
2019-01-29T18:13:01.452Z,9.85
2019-01-29T18:15:30.579Z,9.13
2019-01-29T18:18:00.412Z,9.88
2019-01-29T18:20:29.697Z,7.08
2019-01-29T18:22:58.609Z,10.93
2019-01-29T18:25:27.374Z,10.20
2019-01-29T18:28:01.243Z,9.65
2019-01-29T18:30:29.140Z,10.93
2019-01-29T18:32:57.775Z,11.65
2019-01-29T18:35:27.178Z,13.78
2019-01-29T18:37:55.936Z,16.05
2019-01-29T18:40:30.380Z,16.23
2019-01-29T18:42:59.121Z,16.50
2019-01-29T18:45:27.879Z,17.17
2019-01-29T18:47:56.731Z,11.93
2019-01-29T18:50:26.124Z,16.20
2019-01-29T18:52:54.782Z,16.12
2019-01-29T18:55:23.379Z,18.30
2019-01-29T18:57:52.219Z,12.07
2019-01-29T19:00:22.536Z,16.80
2019-01-29T19:02:51.235Z,14.05
2019-01-29T19:05:22.680Z,15.10
2019-01-29T19:07:51.766Z,20.30
2019-01-29T19:10:21.029Z,17.35
2019-01-29T19:12:50.140Z,17.12
2019-01-29T19:15:20.417Z,18.00
2019-01-29T19:17:49.105Z,15.60
2019-01-29T19:20:20.903Z,17.80
2019-01-29T19:22:49.923Z,16.40
2019-01-29T19:25:18.623Z,22.13
2019-01-29T19:27:47.418Z,25.90
2019-01-29T19:30:18.925Z,18.30
2019-01-29T19:32:47.474Z,19.40
2019-01-29T19:35:16.449Z,19.45
2019-01-29T19:37:45.027Z,20.00
2019-01-29T19:40:13.834Z,17.60
2019-01-29T19:42:42.520Z,17.82
2019-01-29T19:45:16.993Z,18.98
2019-01-29T19:47:45.850Z,14.45
2019-01-29T19:50:17.124Z,18.70
2019-01-29T19:52:45.696Z,20.08
2019-01-29T19:55:14.575Z,21.15
2019-01-29T19:57:43.866Z,24.57
2019-01-29T20:00:23.864Z,17.70
2019-01-29T20:02:52.531Z,19.90
2019-01-29T20:05:21.333Z,20.10
2019-01-29T20:07:50.052Z,19.30
2019-01-29T20:10:19.026Z,25.05
2019-01-29T20:12:47.640Z,16.85
2019-01-29T20:15:17.308Z,15.93
2019-01-29T20:17:46.567Z,19.75
2019-01-29T20:20:21.113Z,16.67
2019-01-29T20:22:49.930Z,18.27
2019-01-29T20:25:18.928Z,16.77
2019-01-29T20:27:47.669Z,15.00
2019-01-29T20:30:19.331Z,22.67
2019-01-29T20:32:53.318Z,20.15
2019-01-29T20:35:18.806Z,21.80
2019-01-29T20:37:48.542Z,20.05
2019-01-29T20:40:17.996Z,18.75
2019-01-29T20:42:46.675Z,19.67
2019-01-29T20:45:16.262Z,20.35
2019-01-29T20:47:45.608Z,19.27
2019-01-29T20:50:17.289Z,20.00
2019-01-29T20:52:45.866Z,22.40
2019-01-29T20:55:14.549Z,16.30
2019-01-29T20:57:43.219Z,17.98
2019-01-29T21:00:18.237Z,23.80
2019-01-29T21:02:46.905Z,15.10
2019-01-29T21:05:15.570Z,16.45
2019-01-29T21:07:44.291Z,14.43
2019-01-29T21:10:17.708Z,15.20
2019-01-29T21:12:46.513Z,16.80
2019-01-29T21:15:16.432Z,13.58
2019-01-29T21:17:46.140Z,15.53
2019-01-29T21:20:20.000Z,10.75
2019-01-29T21:22:48.867Z,18.10
2019-01-29T21:25:17.686Z,20.95
2019-01-29T21:27:46.387Z,13.30
2019-01-29T21:30:21.352Z,12.13
2019-01-29T21:32:49.938Z,13.00
2019-01-29T21:35:18.879Z,17.98
2019-01-29T21:37:47.770Z,15.50
2019-01-29T21:40:17.101Z,20.72
2019-01-29T21:42:45.738Z,24.43
2019-01-29T21:45:14.749Z,18.80
2019-01-29T21:47:43.528Z,15.65
2019-01-29T21:50:14.974Z,15.05
2019-01-29T21:52:43.799Z,19.90
2019-01-29T21:55:12.520Z,17.37
2019-01-29T21:57:42.444Z,15.88
2019-01-29T22:00:15.344Z,18.12
2019-01-29T22:02:44.387Z,16.02
2019-01-29T22:05:13.246Z,15.18
2019-01-29T22:07:42.391Z,13.65
2019-01-29T22:10:13.550Z,15.85
2019-01-29T22:12:42.289Z,19.65
2019-01-29T22:15:12.388Z,15.85
2019-01-29T22:17:41.307Z,16.77
2019-01-29T22:20:12.866Z,15.95
2019-01-29T22:22:41.879Z,13.20
2019-01-29T22:25:12.954Z,22.50
2019-01-29T22:27:41.742Z,19.05
2019-01-29T22:30:14.341Z,20.82
2019-01-29T22:32:42.918Z,21.70
2019-01-29T22:35:11.588Z,19.77
2019-01-29T22:37:40.145Z,19.55
2019-01-29T22:40:12.627Z,16.00
2019-01-29T22:42:41.455Z,20.12
2019-01-29T22:45:11.303Z,18.10
2019-01-29T22:47:39.876Z,23.62
2019-01-29T22:50:17.498Z,19.73
2019-01-29T22:52:46.332Z,20.75
2019-01-29T22:55:15.099Z,18.80
2019-01-29T22:57:43.837Z,18.92
2019-01-29T23:00:47.453Z,19.07
2019-01-29T23:03:16.636Z,19.70
2019-01-29T23:05:45.859Z,15.85
2019-01-29T23:08:14.427Z,24.55
2019-01-29T23:10:43.442Z,24.18
2019-01-29T23:13:12.003Z,23.55
2019-01-29T23:15:40.807Z,20.40
2019-01-29T23:18:09.576Z,25.52
2019-01-29T23:20:41.225Z,22.62
2019-01-29T23:23:09.778Z,22.00
2019-01-29T23:25:38.348Z,17.30
2019-01-29T23:28:06.926Z,23.75
2019-01-29T23:30:35.516Z,18.67
2019-01-29T23:33:04.169Z,21.75
2019-01-29T23:35:33.044Z,21.00
2019-01-29T23:38:01.679Z,18.23
2019-01-29T23:40:30.263Z,24.95
2019-01-29T23:42:58.821Z,18.67
2019-01-29T23:45:27.392Z,22.00
2019-01-29T23:48:02.295Z,18.48
2019-01-29T23:50:31.537Z,21.75
2019-01-29T23:53:00.216Z,22.50
2019-01-29T23:55:28.884Z,23.55
2019-01-29T23:57:57.684Z,25.82
